createdAt,value
2019-03-05T00:00:28.023Z,991.66
2019-03-05T00:01:28.050Z,991.62
2019-03-05T00:02:28.079Z,991.80
2019-03-05T00:03:28.110Z,991.85
2019-03-05T00:04:28.139Z,991.62
2019-03-05T00:05:28.168Z,991.65
2019-03-05T00:06:28.197Z,991.66
2019-03-05T00:07:28.224Z,991.72
2019-03-05T00:08:28.254Z,991.72
2019-03-05T00:09:28.282Z,991.70
2019-03-05T00:10:28.311Z,991.85
2019-03-05T00:11:28.342Z,991.73
2019-03-05T00:12:28.371Z,991.74
2019-03-05T00:13:28.399Z,991.74
2019-03-05T00:14:28.427Z,991.91
2019-03-05T00:15:28.458Z,991.92
2019-03-05T00:16:28.487Z,991.81
2019-03-05T00:17:28.515Z,991.71
2019-03-05T00:18:28.544Z,991.73
2019-03-05T00:19:28.577Z,991.73
2019-03-05T00:20:28.601Z,991.77
2019-03-05T00:21:28.632Z,991.70
2019-03-05T00:22:28.660Z,991.74
2019-03-05T00:23:28.689Z,991.72
2019-03-05T00:24:28.717Z,991.78
2019-03-05T00:25:28.746Z,991.79
2019-03-05T00:26:28.776Z,991.74
2019-03-05T00:27:28.806Z,991.65
2019-03-05T00:28:28.835Z,991.71
2019-03-05T00:29:28.866Z,991.70
2019-03-05T00:30:28.892Z,991.71
2019-03-05T00:31:28.924Z,991.71
2019-03-05T00:32:28.959Z,991.81
2019-03-05T00:33:28.982Z,991.77
2019-03-05T00:34:29.014Z,991.83
2019-03-05T00:35:29.038Z,991.72
2019-03-05T00:36:29.068Z,991.76
2019-03-05T00:37:29.096Z,991.81
2019-03-05T00:38:29.138Z,991.71
2019-03-05T00:39:29.154Z,991.85
2019-03-05T00:40:29.183Z,991.78
2019-03-05T00:41:29.216Z,991.75
2019-03-05T00:42:29.242Z,991.76
2019-03-05T00:43:29.271Z,991.88
2019-03-05T00:44:29.299Z,991.80
2019-03-05T00:45:29.344Z,991.74
2019-03-05T00:46:29.357Z,991.79
2019-03-05T00:47:29.389Z,991.76
2019-03-05T00:48:29.419Z,991.75
2019-03-05T00:49:29.446Z,991.87
2019-03-05T00:50:29.474Z,991.83
2019-03-05T00:51:29.503Z,991.86
2019-03-05T00:52:29.534Z,991.88
2019-03-05T00:53:29.561Z,991.87
2019-03-05T00:54:29.592Z,991.82
2019-03-05T00:55:29.623Z,991.83
2019-03-05T00:56:29.650Z,991.89
2019-03-05T00:57:29.678Z,991.86
2019-03-05T00:58:29.707Z,991.83
2019-03-05T00:59:29.739Z,991.91
2019-03-05T01:00:29.766Z,991.88
2019-03-05T01:01:29.796Z,991.83
2019-03-05T01:02:29.824Z,991.91
2019-03-05T01:03:29.862Z,991.90
2019-03-05T01:04:29.883Z,991.86
2019-03-05T01:05:29.913Z,991.82
2019-03-05T01:06:29.943Z,991.89
2019-03-05T01:07:29.970Z,992.11
2019-03-05T01:08:30.000Z,991.90
2019-03-05T01:09:30.030Z,991.93
2019-03-05T01:10:30.061Z,991.84
2019-03-05T01:11:30.088Z,991.91
2019-03-05T01:12:30.117Z,991.90
2019-03-05T01:13:30.148Z,991.96
2019-03-05T01:14:30.175Z,991.82
2019-03-05T01:15:30.204Z,991.87
2019-03-05T01:16:30.238Z,991.85
2019-03-05T01:17:30.261Z,991.82
2019-03-05T01:18:30.296Z,991.76
2019-03-05T01:19:30.321Z,991.89
2019-03-05T01:20:30.351Z,991.84
2019-03-05T01:21:30.379Z,991.86
2019-03-05T01:22:30.409Z,991.83
2019-03-05T01:23:30.439Z,991.78
2019-03-05T01:24:30.468Z,991.82
2019-03-05T01:25:30.496Z,991.74
2019-03-05T01:26:30.526Z,991.78
2019-03-05T01:27:30.555Z,991.91
2019-03-05T01:28:30.585Z,991.74
2019-03-05T01:29:30.615Z,991.74
2019-03-05T01:30:30.643Z,991.74
2019-03-05T01:31:30.674Z,991.77
2019-03-05T01:32:30.707Z,991.68
2019-03-05T01:33:30.733Z,991.76
2019-03-05T01:34:30.767Z,991.81
2019-03-05T01:35:30.799Z,991.90
2019-03-05T01:36:30.819Z,991.77
2019-03-05T01:37:30.847Z,991.80
2019-03-05T01:38:30.888Z,991.84
2019-03-05T01:39:30.910Z,991.71
2019-03-05T01:40:30.936Z,991.77
2019-03-05T01:41:30.970Z,991.74
2019-03-05T01:42:30.995Z,991.77
2019-03-05T01:43:31.024Z,991.78
2019-03-05T01:44:31.053Z,991.74
2019-03-05T01:45:31.082Z,991.82
2019-03-05T01:46:31.116Z,991.84
2019-03-05T01:47:31.142Z,991.83
2019-03-05T01:48:31.173Z,991.74
2019-03-05T01:49:31.201Z,991.82
2019-03-05T01:50:31.229Z,991.84
2019-03-05T01:51:31.260Z,991.77
2019-03-05T01:52:31.287Z,991.81
2019-03-05T01:53:31.316Z,991.76
2019-03-05T01:54:31.347Z,991.84
2019-03-05T01:55:31.377Z,991.82
2019-03-05T01:56:31.407Z,991.86
2019-03-05T01:57:31.434Z,991.85
2019-03-05T01:58:31.464Z,991.94
2019-03-05T01:59:31.493Z,991.92
2019-03-05T02:00:31.523Z,991.91
2019-03-05T02:01:31.554Z,992.02
2019-03-05T02:02:31.581Z,991.98
2019-03-05T02:03:31.611Z,992.01
2019-03-05T02:04:31.642Z,992.02
2019-03-05T02:05:31.670Z,992.03
2019-03-05T02:06:31.696Z,992.06
2019-03-05T02:07:31.728Z,992.08
2019-03-05T02:08:31.759Z,992.08
2019-03-05T02:09:31.783Z,992.07
2019-03-05T02:10:31.829Z,992.06
2019-03-05T02:11:31.843Z,992.21
2019-03-05T02:12:31.871Z,992.15
2019-03-05T02:13:31.898Z,992.11
2019-03-05T02:14:31.929Z,992.07
2019-03-05T02:15:31.959Z,992.06
2019-03-05T02:16:31.990Z,992.04
2019-03-05T02:17:32.016Z,992.14
2019-03-05T02:18:32.045Z,992.01
2019-03-05T02:19:32.074Z,992.05
2019-03-05T02:20:32.104Z,992.01
2019-03-05T02:21:32.136Z,992.07
2019-03-05T02:22:32.161Z,991.95
2019-03-05T02:23:32.194Z,992.00
2019-03-05T02:24:32.222Z,991.99
2019-03-05T02:25:32.248Z,991.96
2019-03-05T02:26:32.280Z,991.94
2019-03-05T02:27:32.307Z,991.90
2019-03-05T02:28:32.338Z,991.97
2019-03-05T02:29:32.365Z,992.08
2019-03-05T02:30:32.397Z,991.99
2019-03-05T02:31:32.424Z,991.98
2019-03-05T02:32:32.453Z,992.00
2019-03-05T02:33:32.482Z,992.01
2019-03-05T02:34:32.511Z,992.07
2019-03-05T02:35:32.541Z,992.10
2019-03-05T02:36:32.571Z,992.06
2019-03-05T02:37:32.598Z,992.23
2019-03-05T02:38:32.626Z,992.01
2019-03-05T02:39:32.660Z,992.11
2019-03-05T02:40:32.690Z,992.16
2019-03-05T02:41:32.714Z,992.15
2019-03-05T02:42:32.745Z,992.27
2019-03-05T02:43:32.790Z,992.07
2019-03-05T02:44:32.803Z,992.06
2019-03-05T02:45:32.831Z,992.11
2019-03-05T02:46:32.860Z,992.25
2019-03-05T02:47:32.889Z,992.06
2019-03-05T02:48:32.919Z,992.09
2019-03-05T02:49:32.945Z,992.08
2019-03-05T02:50:32.978Z,992.18
2019-03-05T02:51:33.010Z,992.06
2019-03-05T02:52:33.033Z,992.13
2019-03-05T02:53:33.063Z,992.12
2019-03-05T02:54:33.098Z,992.06
2019-03-05T02:55:33.120Z,992.13
2019-03-05T02:56:33.151Z,992.12
2019-03-05T02:57:33.187Z,992.15
2019-03-05T02:58:33.256Z,992.12
2019-03-05T02:59:33.235Z,992.10
2019-03-05T03:00:33.266Z,992.17
2019-03-05T03:01:33.295Z,992.08
2019-03-05T03:02:33.323Z,992.20
2019-03-05T03:03:33.353Z,992.09
2019-03-05T03:04:33.381Z,992.25
2019-03-05T03:05:33.425Z,992.17
2019-03-05T03:06:33.440Z,992.30
2019-03-05T03:07:33.473Z,992.18
2019-03-05T03:08:33.497Z,992.34
2019-03-05T03:09:33.530Z,992.22
2019-03-05T03:10:33.563Z,992.18
2019-03-05T03:11:33.589Z,992.17
2019-03-05T03:12:33.614Z,992.20
2019-03-05T03:13:33.645Z,992.23
2019-03-05T03:14:33.671Z,992.18
2019-03-05T03:15:33.699Z,992.19
2019-03-05T03:16:33.730Z,992.26
2019-03-05T03:17:33.760Z,992.25
2019-03-05T03:18:33.794Z,992.20
2019-03-05T03:19:33.818Z,992.28
2019-03-05T03:20:33.847Z,992.34
2019-03-05T03:21:33.877Z,992.30
2019-03-05T03:22:33.904Z,992.25
2019-03-05T03:23:33.934Z,992.27
2019-03-05T03:24:33.961Z,992.27
2019-03-05T03:25:33.990Z,992.26
2019-03-05T03:26:34.020Z,992.30
2019-03-05T03:27:34.048Z,992.26
2019-03-05T03:28:34.079Z,992.33
2019-03-05T03:29:34.106Z,992.23
2019-03-05T03:30:34.151Z,992.29
2019-03-05T03:31:34.164Z,992.34
2019-03-05T03:32:34.194Z,992.30
2019-03-05T03:33:34.221Z,992.28
2019-03-05T03:34:34.256Z,992.31
2019-03-05T03:35:34.281Z,992.32
2019-03-05T03:36:34.312Z,992.23
2019-03-05T03:37:34.340Z,992.36
2019-03-05T03:38:34.370Z,992.32
2019-03-05T03:39:34.404Z,992.40
2019-03-05T03:40:34.429Z,992.43
2019-03-05T03:41:34.454Z,992.60
2019-03-05T03:42:34.483Z,992.39
2019-03-05T03:43:34.511Z,992.54
2019-03-05T03:44:34.542Z,992.39
2019-03-05T03:45:34.570Z,992.36
2019-03-05T03:46:34.600Z,992.35
2019-03-05T03:47:41.071Z,992.41
2019-03-05T03:49:36.630Z,992.36
2019-03-05T03:50:36.656Z,992.38
2019-03-05T03:52:38.680Z,992.37
2019-03-05T03:53:38.687Z,992.37
2019-03-05T03:55:40.700Z,992.41
2019-03-05T03:56:40.717Z,992.45
2019-03-05T03:58:32.653Z,992.50
2019-03-05T03:59:32.673Z,992.52
2019-03-05T04:01:34.819Z,992.47
2019-03-05T04:02:34.844Z,992.52
2019-03-05T04:04:36.984Z,992.77
2019-03-05T04:05:36.981Z,992.53
2019-03-05T04:06:37.022Z,992.64
2019-03-05T04:07:37.039Z,992.52
2019-03-05T04:08:37.076Z,992.54
2019-03-05T04:09:37.099Z,992.57
2019-03-05T04:10:37.127Z,992.61
2019-03-05T04:11:37.155Z,992.54
2019-03-05T04:12:37.183Z,992.71
2019-03-05T04:13:37.212Z,992.55
2019-03-05T04:14:37.246Z,992.63
2019-03-05T04:15:37.269Z,992.57
2019-03-05T04:16:37.298Z,992.53
2019-03-05T04:17:37.326Z,992.66
2019-03-05T04:18:37.358Z,992.57
2019-03-05T04:19:37.391Z,992.63
2019-03-05T04:20:37.414Z,992.57
2019-03-05T04:21:37.446Z,992.67
2019-03-05T04:22:37.473Z,992.48
2019-03-05T04:23:37.502Z,992.62
2019-03-05T04:24:37.530Z,992.48
2019-03-05T04:25:37.558Z,992.58
2019-03-05T04:26:37.587Z,992.78
2019-03-05T04:27:37.642Z,992.63
2019-03-05T04:28:37.647Z,992.61
2019-03-05T04:29:37.674Z,992.57
2019-03-05T04:30:37.707Z,992.59
2019-03-05T04:31:37.740Z,992.60
2019-03-05T04:32:37.762Z,992.63
2019-03-05T04:33:37.792Z,992.74
2019-03-05T04:34:37.820Z,992.63
2019-03-05T04:35:37.872Z,992.59
2019-03-05T04:36:37.878Z,992.72
2019-03-05T04:37:37.906Z,992.60
2019-03-05T04:38:37.937Z,992.53
2019-03-05T04:39:37.966Z,992.66
2019-03-05T04:40:37.994Z,992.61
2019-03-05T04:41:38.024Z,992.74
2019-03-05T04:42:38.054Z,992.57
2019-03-05T04:43:38.081Z,992.69
2019-03-05T04:44:38.108Z,992.57
2019-03-05T04:45:38.139Z,992.70
2019-03-05T04:46:38.168Z,992.67
2019-03-05T04:47:38.197Z,992.61
2019-03-05T04:48:38.225Z,992.71
2019-03-05T04:49:38.259Z,992.62
2019-03-05T04:50:38.285Z,992.74
2019-03-05T04:51:38.315Z,992.72
2019-03-05T04:52:38.341Z,992.65
2019-03-05T04:53:38.406Z,992.66
2019-03-05T04:54:38.401Z,992.81
2019-03-05T04:55:38.430Z,992.60
2019-03-05T04:56:38.457Z,992.68
2019-03-05T04:57:38.487Z,992.77
2019-03-05T04:58:38.518Z,992.65
2019-03-05T04:59:38.546Z,992.59
2019-03-05T05:00:38.575Z,992.93
2019-03-05T05:01:38.603Z,992.61
2019-03-05T05:02:38.636Z,992.65
2019-03-05T05:03:38.684Z,992.59
2019-03-05T05:04:38.696Z,992.67
2019-03-05T05:05:38.719Z,992.69
2019-03-05T05:06:38.747Z,992.80
2019-03-05T05:07:38.777Z,992.79
2019-03-05T05:08:38.808Z,992.76
2019-03-05T05:09:38.835Z,992.94
2019-03-05T05:10:38.868Z,992.82
2019-03-05T05:11:38.916Z,992.80
2019-03-05T05:12:38.921Z,992.89
2019-03-05T05:13:38.951Z,992.81
2019-03-05T05:14:38.983Z,992.84
2019-03-05T05:15:39.011Z,992.84
2019-03-05T05:16:39.040Z,992.98
2019-03-05T05:17:39.066Z,992.87
2019-03-05T05:18:39.101Z,992.97
2019-03-05T05:19:39.127Z,992.90
2019-03-05T05:20:39.154Z,992.94
2019-03-05T05:21:39.183Z,992.91
2019-03-05T05:22:39.213Z,992.98
2019-03-05T05:23:39.362Z,992.97
2019-03-05T05:24:39.268Z,993.01
2019-03-05T05:25:39.298Z,992.95
2019-03-05T05:26:39.331Z,992.99
2019-03-05T05:27:39.359Z,993.06
2019-03-05T05:28:39.475Z,993.18
2019-03-05T05:29:39.425Z,993.04
2019-03-05T05:30:39.443Z,993.09
2019-03-05T05:31:39.472Z,992.96
2019-03-05T05:32:39.500Z,993.06
2019-03-05T05:33:39.532Z,993.10
2019-03-05T05:34:39.558Z,993.07
2019-03-05T05:35:39.587Z,993.06
2019-03-05T05:36:39.616Z,993.21
2019-03-05T05:37:39.645Z,993.15
2019-03-05T05:38:39.674Z,993.11
2019-03-05T05:39:39.705Z,993.12
2019-03-05T05:40:39.731Z,993.35
2019-03-05T05:41:39.761Z,993.08
2019-03-05T05:42:39.789Z,993.17
2019-03-05T05:43:39.821Z,993.26
2019-03-05T05:44:39.848Z,993.18
2019-03-05T05:45:39.875Z,993.12
2019-03-05T05:46:39.905Z,993.30
2019-03-05T05:47:39.934Z,993.37
2019-03-05T05:48:39.961Z,993.33
2019-03-05T05:49:39.992Z,993.23
2019-03-05T05:50:40.020Z,993.33
2019-03-05T05:51:40.052Z,993.24
2019-03-05T05:52:40.083Z,993.28
2019-03-05T05:53:40.108Z,993.45
2019-03-05T05:54:40.138Z,993.34
2019-03-05T05:55:40.166Z,993.51
2019-03-05T05:56:40.194Z,993.36
2019-03-05T05:57:40.223Z,993.44
2019-03-05T05:58:40.251Z,993.41
2019-03-05T05:59:40.283Z,993.56
2019-03-05T06:00:40.307Z,993.38
2019-03-05T06:01:40.337Z,993.63
2019-03-05T06:02:40.366Z,993.49
2019-03-05T06:03:40.395Z,993.50
2019-03-05T06:04:40.429Z,993.52
2019-03-05T06:05:40.458Z,993.55
2019-03-05T06:06:40.482Z,993.64
2019-03-05T06:07:40.517Z,993.58
2019-03-05T06:08:40.539Z,993.60
2019-03-05T06:09:40.569Z,993.75
2019-03-05T06:10:40.597Z,993.66
2019-03-05T06:11:40.626Z,993.71
2019-03-05T06:12:40.654Z,993.59
2019-03-05T06:13:40.686Z,993.65
2019-03-05T06:14:40.712Z,993.70
2019-03-05T06:15:40.743Z,993.68
2019-03-05T06:16:40.769Z,993.78
2019-03-05T06:17:40.799Z,993.70
2019-03-05T06:18:40.853Z,993.83
2019-03-05T06:19:40.857Z,993.72
2019-03-05T06:20:42.681Z,993.68
2019-03-05T06:21:40.915Z,993.64
2019-03-05T06:22:40.943Z,993.58
2019-03-05T06:23:40.972Z,993.76
2019-03-05T06:24:40.999Z,993.66
2019-03-05T06:25:41.029Z,993.67
2019-03-05T06:26:41.058Z,993.68
2019-03-05T06:27:41.089Z,993.82
2019-03-05T06:28:41.116Z,993.83
2019-03-05T06:29:41.147Z,993.79
2019-03-05T06:30:41.180Z,993.89
2019-03-05T06:31:41.203Z,993.83
2019-03-05T06:32:41.232Z,993.99
2019-03-05T06:33:41.260Z,993.92
2019-03-05T06:34:41.290Z,994.04
2019-03-05T06:35:41.318Z,994.45
2019-03-05T06:36:41.347Z,993.92
2019-03-05T06:37:41.376Z,993.98
2019-03-05T06:38:41.408Z,993.97
2019-03-05T06:39:41.445Z,994.03
2019-03-05T06:40:41.468Z,993.90
2019-03-05T06:41:41.492Z,993.98
2019-03-05T06:42:41.520Z,994.03
2019-03-05T06:43:41.549Z,994.04
2019-03-05T06:44:41.578Z,993.90
2019-03-05T06:45:41.610Z,993.96
2019-03-05T06:46:41.636Z,994.12
2019-03-05T06:47:41.687Z,994.05
2019-03-05T06:48:41.693Z,993.98
2019-03-05T06:49:41.738Z,994.18
2019-03-05T06:50:41.753Z,994.18
2019-03-05T06:51:41.782Z,994.08
2019-03-05T06:52:41.810Z,994.11
2019-03-05T06:53:41.840Z,994.14
2019-03-05T06:54:41.867Z,994.20
2019-03-05T06:55:41.900Z,994.17
2019-03-05T06:56:41.925Z,994.23
2019-03-05T06:57:41.955Z,994.24
2019-03-05T06:58:41.989Z,994.21
2019-03-05T06:59:42.015Z,994.29
2019-03-05T07:00:42.042Z,994.27
2019-03-05T07:01:42.072Z,994.32
2019-03-05T07:02:42.100Z,994.27
2019-03-05T07:03:42.128Z,994.40
2019-03-05T07:04:42.155Z,994.37
2019-03-05T07:05:42.185Z,994.44
2019-03-05T07:06:42.214Z,994.40
2019-03-05T07:07:42.243Z,994.34
2019-03-05T07:08:42.275Z,994.44
2019-03-05T07:09:42.303Z,994.29
2019-03-05T07:10:42.332Z,994.40
2019-03-05T07:11:42.363Z,994.38
2019-03-05T07:12:42.387Z,994.40
2019-03-05T07:13:42.417Z,994.40
2019-03-05T07:14:42.444Z,994.46
2019-03-05T07:15:42.475Z,994.51
2019-03-05T07:16:42.503Z,994.51
2019-03-05T07:17:42.532Z,994.51
2019-03-05T07:18:42.562Z,994.47
2019-03-05T07:19:42.595Z,994.51
2019-03-05T07:20:42.618Z,994.51
2019-03-05T07:21:42.649Z,994.63
2019-03-05T07:22:42.677Z,994.57
2019-03-05T07:23:43.176Z,994.58
2019-03-05T07:24:42.735Z,994.53
2019-03-05T07:25:42.767Z,994.67
2019-03-05T07:26:42.793Z,994.53
2019-03-05T07:27:42.823Z,994.65
2019-03-05T07:28:42.849Z,994.48
2019-03-05T07:29:42.889Z,994.59
2019-03-05T07:30:42.909Z,994.59
2019-03-05T07:31:42.941Z,994.71
2019-03-05T07:32:42.966Z,994.78
2019-03-05T07:33:42.995Z,994.63
2019-03-05T07:34:43.025Z,994.72
2019-03-05T07:35:43.054Z,994.71
2019-03-05T07:36:45.203Z,994.88
2019-03-05T07:37:43.111Z,994.66
2019-03-05T07:38:43.141Z,994.73
2019-03-05T07:39:43.170Z,994.76
2019-03-05T07:40:43.199Z,994.66
2019-03-05T07:41:43.232Z,994.88
2019-03-05T07:42:43.260Z,994.74
2019-03-05T07:43:43.286Z,994.72
2019-03-05T07:44:43.322Z,994.74
2019-03-05T07:45:43.345Z,994.73
2019-03-05T07:46:43.373Z,994.82
2019-03-05T07:47:43.403Z,994.86
2019-03-05T07:48:43.431Z,994.72
2019-03-05T07:49:44.388Z,994.75
2019-03-05T07:50:43.495Z,994.77
2019-03-05T07:51:43.526Z,994.72
2019-03-05T07:52:43.548Z,994.76
2019-03-05T07:53:43.579Z,994.97
2019-03-05T07:54:43.606Z,994.80
2019-03-05T07:55:43.636Z,995.04
2019-03-05T07:56:43.664Z,994.79
2019-03-05T07:57:43.693Z,994.84
2019-03-05T07:58:43.726Z,994.85
2019-03-05T07:59:43.754Z,995.00
2019-03-05T08:00:43.782Z,994.74
2019-03-05T08:01:43.811Z,994.85
2019-03-05T08:02:43.841Z,994.95
2019-03-05T08:03:43.907Z,994.98
2019-03-05T08:04:43.899Z,995.30
2019-03-05T08:05:43.929Z,995.09
2019-03-05T08:06:43.975Z,994.97
2019-03-05T08:07:43.989Z,995.07
2019-03-05T08:08:44.019Z,995.01
2019-03-05T08:09:44.047Z,995.00
2019-03-05T08:10:44.102Z,995.01
2019-03-05T08:11:44.108Z,995.17
2019-03-05T08:12:44.133Z,995.18
2019-03-05T08:13:44.167Z,995.36
2019-03-05T08:14:44.194Z,995.03
2019-03-05T08:15:44.225Z,995.05
2019-03-05T08:16:44.253Z,995.09
2019-03-05T08:17:46.933Z,995.05
2019-03-05T08:18:44.311Z,994.99
2019-03-05T08:19:44.342Z,995.09
2019-03-05T08:20:44.369Z,995.27
2019-03-05T08:21:44.399Z,995.18
2019-03-05T08:22:44.431Z,995.06
2019-03-05T08:23:44.458Z,995.08
2019-03-05T08:24:44.487Z,995.07
2019-03-05T08:25:44.518Z,995.11
2019-03-05T08:26:44.546Z,995.28
2019-03-05T08:27:44.576Z,995.17
2019-03-05T08:28:44.606Z,995.24
2019-03-05T08:29:44.634Z,995.12
2019-03-05T08:30:44.667Z,995.20
2019-03-05T08:31:44.695Z,995.28
2019-03-05T08:32:44.725Z,995.22
2019-03-05T08:33:44.781Z,995.26
2019-03-05T08:34:44.782Z,995.22
2019-03-05T08:35:44.822Z,995.31
2019-03-05T08:36:44.842Z,995.40
2019-03-05T08:37:44.937Z,995.41
2019-03-05T08:38:44.901Z,995.33
2019-03-05T08:39:44.934Z,995.31
2019-03-05T08:40:44.960Z,995.30
2019-03-05T08:41:44.990Z,995.38
2019-03-05T08:42:45.019Z,995.34
2019-03-05T08:43:45.049Z,995.53
2019-03-05T08:44:50.348Z,995.63
2019-03-05T08:45:45.108Z,995.61
2019-03-05T08:46:45.140Z,995.68
2019-03-05T08:47:45.167Z,995.71
2019-03-05T08:48:45.199Z,995.73
2019-03-05T08:49:45.226Z,995.55
2019-03-05T08:50:45.256Z,995.58
2019-03-05T08:51:45.287Z,995.58
2019-03-05T08:52:45.317Z,995.73
2019-03-05T08:53:49.609Z,995.65
2019-03-05T08:54:45.626Z,995.54
2019-03-05T08:55:45.404Z,995.63
2019-03-05T08:56:45.436Z,995.64
2019-03-05T08:57:45.463Z,995.63
2019-03-05T08:58:45.495Z,995.71
2019-03-05T08:59:45.523Z,995.57
2019-03-05T09:00:48.047Z,995.70
2019-03-05T09:01:45.585Z,995.77
2019-03-05T09:02:48.837Z,995.62
2019-03-05T09:03:45.642Z,995.62
2019-03-05T09:04:45.672Z,995.63
2019-03-05T09:05:45.701Z,995.80
2019-03-05T09:06:45.734Z,995.72
2019-03-05T09:07:45.762Z,995.71
2019-03-05T09:08:45.793Z,995.79
2019-03-05T09:09:45.822Z,995.71
2019-03-05T09:10:45.852Z,995.78
2019-03-05T09:11:45.882Z,995.69
2019-03-05T09:12:45.911Z,995.72
2019-03-05T09:13:45.944Z,995.73
2019-03-05T09:14:45.975Z,995.66
2019-03-05T09:15:46.004Z,995.75
2019-03-05T09:16:46.031Z,995.81
2019-03-05T09:17:46.065Z,995.90
2019-03-05T09:18:46.092Z,995.70
2019-03-05T09:19:46.123Z,996.04
2019-03-05T09:20:46.156Z,995.77
2019-03-05T09:21:46.184Z,995.86
2019-03-05T09:22:46.212Z,995.74
2019-03-05T09:23:46.248Z,995.60
2019-03-05T09:24:46.274Z,995.92
2019-03-05T09:25:46.305Z,995.97
2019-03-05T09:26:51.202Z,995.97
2019-03-05T09:27:46.366Z,996.04
2019-03-05T09:28:46.393Z,996.12
2019-03-05T09:29:46.423Z,996.21
2019-03-05T09:30:46.452Z,996.30
2019-03-05T09:31:46.483Z,996.64
2019-03-05T09:32:46.515Z,996.46
2019-03-05T09:33:46.543Z,996.43
2019-03-05T09:34:46.574Z,996.38
2019-03-05T09:35:46.657Z,996.32
2019-03-05T09:36:50.887Z,996.41
2019-03-05T09:37:46.665Z,996.33
2019-03-05T09:38:46.694Z,996.32
2019-03-05T09:39:46.727Z,996.30
2019-03-05T09:40:46.754Z,996.39
2019-03-05T09:41:46.788Z,996.29
2019-03-05T09:42:46.813Z,996.38
2019-03-05T09:43:46.845Z,996.50
2019-03-05T09:44:46.872Z,996.40
2019-03-05T09:45:46.904Z,996.42
2019-03-05T09:46:46.933Z,996.51
2019-03-05T09:47:54.130Z,996.46
2019-03-05T09:49:51.004Z,996.46
2019-03-05T09:50:51.012Z,996.46
2019-03-05T09:52:55.493Z,996.38
2019-03-05T09:53:55.066Z,996.53
2019-03-05T09:55:59.121Z,996.55
2019-03-05T09:56:59.123Z,996.51
2019-03-05T09:58:52.073Z,996.65
2019-03-05T09:59:52.097Z,996.48
2019-03-05T10:01:56.147Z,996.55
2019-03-05T10:02:56.154Z,996.60
2019-03-05T10:04:59.272Z,996.62
2019-03-05T10:05:59.283Z,996.71
2019-03-05T10:08:03.310Z,996.63
2019-03-05T10:09:03.334Z,996.68
2019-03-05T10:11:07.382Z,996.70
2019-03-05T10:12:07.386Z,996.65
2019-03-05T10:14:11.413Z,996.62
2019-03-05T10:15:11.437Z,996.70
2019-03-05T10:17:15.494Z,996.72
2019-03-05T10:18:15.496Z,996.65
2019-03-05T10:20:26.701Z,996.80
2019-03-05T10:21:19.548Z,996.74
2019-03-05T10:22:26.755Z,996.77
2019-03-05T10:24:21.769Z,996.86
2019-03-05T10:25:21.784Z,996.84
2019-03-05T10:27:25.849Z,996.91
2019-03-05T10:28:25.883Z,996.79
2019-03-05T10:30:29.929Z,996.87
2019-03-05T10:31:29.924Z,996.91
2019-03-05T10:33:22.888Z,996.93
2019-03-05T10:34:22.916Z,996.89
2019-03-05T10:36:26.973Z,996.92
2019-03-05T10:37:26.990Z,997.10
2019-03-05T10:39:31.472Z,997.03
2019-03-05T10:40:31.059Z,997.03
2019-03-05T10:42:35.104Z,997.42
2019-03-05T10:43:35.130Z,997.44
2019-03-05T10:45:38.295Z,997.45
2019-03-05T10:46:38.321Z,997.26
2019-03-05T10:48:41.474Z,997.02
2019-03-05T10:49:41.509Z,996.86
2019-03-05T10:51:45.573Z,997.00
2019-03-05T10:52:45.589Z,997.09
2019-03-05T10:54:49.757Z,996.91
2019-03-05T10:55:49.667Z,996.82
2019-03-05T10:57:53.711Z,996.98
2019-03-05T10:58:53.745Z,996.87
2019-03-05T11:00:57.814Z,996.89
2019-03-05T11:01:57.826Z,996.89
2019-03-05T11:04:01.058Z,996.88
2019-03-05T11:05:01.098Z,996.84
2019-03-05T11:07:05.132Z,997.34
2019-03-05T11:08:05.163Z,997.39
2019-03-05T11:10:08.274Z,996.91
2019-03-05T11:11:13.663Z,996.91
2019-03-05T11:13:01.230Z,996.96
2019-03-05T11:14:01.263Z,996.80
2019-03-05T11:16:05.322Z,996.81
2019-03-05T11:17:05.335Z,996.91
2019-03-05T11:19:09.374Z,996.85
2019-03-05T11:20:09.401Z,996.92
2019-03-05T11:22:19.810Z,996.99
2019-03-05T11:23:11.929Z,996.98
2019-03-05T11:25:15.018Z,996.97
2019-03-05T11:26:15.024Z,997.01
2019-03-05T11:28:18.210Z,996.94
2019-03-05T11:29:18.235Z,996.89
2019-03-05T11:31:21.302Z,996.89
2019-03-05T11:32:21.313Z,996.91
2019-03-05T11:34:24.421Z,996.89
2019-03-05T11:35:24.404Z,996.92
2019-03-05T11:37:27.571Z,996.89
2019-03-05T11:38:27.596Z,996.87
2019-03-05T11:40:29.951Z,996.77
2019-03-05T11:41:29.973Z,996.91
2019-03-05T11:43:21.934Z,996.83
2019-03-05T11:44:21.944Z,996.94
2019-03-05T11:46:24.046Z,996.91
2019-03-05T11:47:24.071Z,996.96
2019-03-05T11:49:26.343Z,997.01
2019-03-05T11:50:26.348Z,997.07
2019-03-05T11:52:30.383Z,996.88
2019-03-05T11:53:30.404Z,996.96
2019-03-05T11:55:33.646Z,996.98
2019-03-05T11:56:33.678Z,996.99
2019-03-05T11:58:35.917Z,996.92
2019-03-05T11:59:35.927Z,997.03
2019-03-05T12:01:38.070Z,997.14
2019-03-05T12:02:38.098Z,997.15
2019-03-05T12:04:41.122Z,997.54
2019-03-05T12:05:41.147Z,997.18
2019-03-05T12:07:46.012Z,997.28
2019-03-05T12:08:43.462Z,997.33
2019-03-05T12:10:45.502Z,997.45
2019-03-05T12:11:45.530Z,997.55
2019-03-05T12:13:47.696Z,998.09
2019-03-05T12:14:47.712Z,997.81
2019-03-05T12:16:51.739Z,998.02
2019-03-05T12:17:51.760Z,997.71
2019-03-05T12:19:53.861Z,997.89
2019-03-05T12:20:53.888Z,998.00
2019-03-05T12:22:46.844Z,997.86
2019-03-05T12:23:47.503Z,997.82
2019-03-05T12:25:50.917Z,997.88
2019-03-05T12:26:50.954Z,997.80
2019-03-05T12:28:54.144Z,997.36
2019-03-05T12:29:54.160Z,997.26
2019-03-05T12:31:58.195Z,997.27
2019-03-05T12:32:58.227Z,997.32
2019-03-05T12:35:02.279Z,997.18
2019-03-05T12:36:02.298Z,997.36
2019-03-05T12:38:06.362Z,997.75
2019-03-05T12:39:06.373Z,997.37
2019-03-05T12:41:10.407Z,997.22
2019-03-05T12:42:10.439Z,997.37
2019-03-05T12:44:12.484Z,997.62
2019-03-05T12:45:12.491Z,997.73
2019-03-05T12:47:15.939Z,997.94
2019-03-05T12:48:14.547Z,997.92
2019-03-05T12:50:16.568Z,997.81
2019-03-05T12:51:16.599Z,997.24
2019-03-05T12:53:08.564Z,998.04
2019-03-05T12:54:08.595Z,997.18
2019-03-05T12:56:10.625Z,998.12
2019-03-05T12:57:10.658Z,997.30
2019-03-05T12:59:12.690Z,997.24
2019-03-05T13:00:12.715Z,997.19
2019-03-05T13:02:14.740Z,997.25
2019-03-05T13:03:14.772Z,997.37
2019-03-05T13:05:16.802Z,997.53
2019-03-05T13:06:16.828Z,997.54
2019-03-05T13:08:18.864Z,997.66
2019-03-05T13:09:19.571Z,997.53
2019-03-05T13:11:20.929Z,997.76
2019-03-05T13:12:20.947Z,998.10
2019-03-05T13:14:22.967Z,998.03
2019-03-05T13:15:22.996Z,998.19
2019-03-05T13:17:25.017Z,998.33
2019-03-05T13:18:26.649Z,998.02
2019-03-05T13:20:27.809Z,998.19
2019-03-05T13:21:27.104Z,998.17
2019-03-05T13:23:19.057Z,997.99
2019-03-05T13:24:19.089Z,998.09
2019-03-05T13:26:21.142Z,998.06
2019-03-05T13:27:22.824Z,998.12
2019-03-05T13:29:23.174Z,998.17
2019-03-05T13:30:25.831Z,998.16
2019-03-05T13:32:25.255Z,997.70
2019-03-05T13:33:25.290Z,998.14
2019-03-05T13:35:30.270Z,998.21
2019-03-05T13:36:27.354Z,997.72
2019-03-05T13:38:29.383Z,997.67
2019-03-05T13:39:29.421Z,997.65
2019-03-05T13:41:31.469Z,997.65
2019-03-05T13:42:33.447Z,997.59
2019-03-05T13:44:34.049Z,997.72
2019-03-05T13:45:33.550Z,997.62
2019-03-05T13:47:37.213Z,997.71
2019-03-05T13:48:35.612Z,997.65
2019-03-05T13:50:37.644Z,997.69
2019-03-05T13:51:37.671Z,997.66
2019-03-05T13:53:39.697Z,997.65
2019-03-05T13:54:39.729Z,997.73
2019-03-05T13:56:42.241Z,997.79
2019-03-05T13:57:43.658Z,997.73
2019-03-05T13:59:43.870Z,997.68
2019-03-05T14:00:43.834Z,997.67